createdAt,value
2019-04-20T00:00:55.084Z,9.09
2019-04-20T00:03:58.891Z,9.07
2019-04-20T00:07:01.940Z,9.04
2019-04-20T00:10:10.969Z,8.99
2019-04-20T00:13:21.514Z,8.96
2019-04-20T00:16:14.674Z,8.93
2019-04-20T00:19:24.322Z,8.90
2019-04-20T00:22:24.668Z,8.84
2019-04-20T00:25:41.791Z,8.64
2019-04-20T00:28:51.242Z,8.50
2019-04-20T00:31:49.261Z,8.44
2019-04-20T00:34:43.297Z,8.34
2019-04-20T00:37:44.562Z,8.22
2019-04-20T00:40:49.678Z,8.07
2019-04-20T00:43:51.664Z,7.88
2019-04-20T00:47:04.316Z,7.66
2019-04-20T00:50:13.693Z,7.44
2019-04-20T00:53:12.446Z,7.33
2019-04-20T00:56:05.501Z,7.31
2019-04-20T00:59:20.549Z,7.31
2019-04-20T01:02:25.691Z,7.13
2019-04-20T01:05:55.729Z,6.96
2019-04-20T01:08:40.197Z,6.85
2019-04-20T01:11:45.494Z,6.72
2019-04-20T01:14:52.103Z,6.66
2019-04-20T01:17:50.147Z,6.56
2019-04-20T01:20:52.014Z,6.48
2019-04-20T01:23:58.624Z,6.42
2019-04-20T01:27:00.840Z,6.42
2019-04-20T01:30:10.764Z,6.37
2019-04-20T01:33:24.345Z,6.27
2019-04-20T01:36:35.085Z,6.23
2019-04-20T01:39:25.366Z,6.16
2019-04-20T01:42:19.180Z,6.17
2019-04-20T01:45:28.894Z,6.16
2019-04-20T01:48:28.684Z,6.12
2019-04-20T01:51:37.704Z,6.10
2019-04-20T01:54:59.167Z,6.06
2019-04-20T01:58:00.151Z,5.97
2019-04-20T02:00:48.679Z,5.89
2019-04-20T02:04:00.201Z,5.86
2019-04-20T02:07:04.703Z,5.87
2019-04-20T02:10:09.778Z,5.80
2019-04-20T02:13:11.189Z,5.71
2019-04-20T02:16:22.888Z,5.62
2019-04-20T02:19:31.284Z,5.58
2019-04-20T02:22:38.287Z,5.56
2019-04-20T02:25:25.019Z,5.58
2019-04-20T02:28:53.906Z,5.57
2019-04-20T02:35:09.354Z,5.57
2019-04-20T02:38:21.791Z,5.61
2019-04-20T02:41:17.441Z,5.68
2019-04-20T02:47:33.761Z,5.66
2019-04-20T02:50:30.416Z,5.62
2019-04-20T02:53:55.609Z,5.62
2019-04-20T02:56:39.439Z,5.54
2019-04-20T03:02:27.518Z,5.46
2019-04-20T03:05:29.740Z,5.41
2019-04-20T03:08:42.301Z,5.39
2019-04-20T03:11:52.965Z,5.36
2019-04-20T03:14:44.951Z,5.32
2019-04-20T03:17:57.457Z,5.28
2019-04-20T03:21:04.576Z,5.28
2019-04-20T03:24:06.973Z,5.25
2019-04-20T03:27:09.618Z,5.21
2019-04-20T03:31:15.740Z,5.14
2019-04-20T03:34:05.674Z,5.15
2019-04-20T03:36:47.202Z,5.14
2019-04-20T03:39:40.760Z,5.17
2019-04-20T03:42:28.893Z,5.17
2019-04-20T03:45:41.596Z,5.07
2019-04-20T03:48:56.263Z,5.01
2019-04-20T03:52:06.974Z,5.04
2019-04-20T03:55:01.464Z,5.11
2019-04-20T03:58:20.550Z,5.21
2019-04-20T04:01:55.527Z,5.26
2019-04-20T04:04:39.010Z,5.47
2019-04-20T04:07:30.528Z,6.01
2019-04-20T04:10:36.382Z,6.58
2019-04-20T04:13:29.093Z,6.98
2019-04-20T04:16:37.231Z,7.72
2019-04-20T04:19:39.716Z,8.45
2019-04-20T04:22:56.462Z,9.26
2019-04-20T04:26:00.772Z,10.03
2019-04-20T04:29:08.294Z,10.67
2019-04-20T04:32:21.159Z,11.61
2019-04-20T04:35:10.419Z,12.45
2019-04-20T04:38:24.077Z,13.33
2019-04-20T04:41:24.299Z,14.24
2019-04-20T04:44:19.881Z,14.75
2019-04-20T04:47:12.142Z,14.84
2019-04-20T04:50:18.288Z,15.44
2019-04-20T04:53:30.367Z,16.26
2019-04-20T04:56:24.938Z,17.23
2019-04-20T04:59:26.030Z,17.62
2019-04-20T05:02:34.900Z,18.27
2019-04-20T05:05:49.188Z,19.07
2019-04-20T05:08:43.742Z,19.76
2019-04-20T05:11:42.662Z,20.73
2019-04-20T05:14:56.881Z,21.42
2019-04-20T05:18:06.175Z,21.63
2019-04-20T05:21:17.555Z,21.39
2019-04-20T05:24:22.654Z,21.45
2019-04-20T05:27:33.504Z,22.40
2019-04-20T05:30:16.029Z,22.78
2019-04-20T05:33:27.778Z,22.93
2019-04-20T05:36:41.282Z,23.35
2019-04-20T05:39:45.763Z,24.00
2019-04-20T05:43:07.917Z,24.51
2019-04-20T05:46:18.204Z,25.11
2019-04-20T05:49:22.066Z,25.19
2019-04-20T05:52:35.092Z,25.62
2019-04-20T05:55:25.681Z,26.25
2019-04-20T05:58:26.193Z,26.58
2019-04-20T06:01:39.704Z,26.72
2019-04-20T06:04:55.959Z,26.95
2019-04-20T06:07:42.355Z,27.32
2019-04-20T06:10:46.617Z,27.40
2019-04-20T06:13:47.134Z,27.83
2019-04-20T06:17:11.129Z,28.08
2019-04-20T06:20:12.643Z,28.17
2019-04-20T06:23:33.282Z,28.07
2019-04-20T06:26:43.431Z,27.80
2019-04-20T06:29:38.013Z,28.11
2019-04-20T06:33:26.708Z,28.59
2019-04-20T06:36:27.647Z,28.95
2019-04-20T06:39:30.884Z,29.46
2019-04-20T06:42:34.293Z,29.50
2019-04-20T06:45:45.787Z,30.04
2019-04-20T06:48:50.042Z,30.25
2019-04-20T06:51:47.678Z,29.80
2019-04-20T06:54:58.167Z,29.43
2019-04-20T06:58:12.694Z,29.57
2019-04-20T07:01:11.068Z,29.95
2019-04-20T07:04:36.196Z,30.33
2019-04-20T07:07:21.189Z,30.75
2019-04-20T07:10:28.490Z,30.91
2019-04-20T07:13:17.605Z,30.88
2019-04-20T07:16:36.291Z,31.02
2019-04-20T07:19:56.423Z,31.42
2019-04-20T07:26:15.352Z,31.26
2019-04-20T07:29:15.521Z,30.85
2019-04-20T07:32:11.640Z,30.81
2019-04-20T07:35:21.708Z,30.64
2019-04-20T07:38:40.174Z,31.15
2019-04-20T07:41:32.975Z,30.99
2019-04-20T07:44:35.328Z,30.85
2019-04-20T07:47:41.148Z,30.82
2019-04-20T07:50:29.573Z,30.73
2019-04-20T07:53:36.664Z,31.18
2019-04-20T07:56:49.499Z,31.20
2019-04-20T07:59:45.017Z,30.80
2019-04-20T08:03:11.446Z,30.45
2019-04-20T08:06:02.295Z,30.28
2019-04-20T08:09:12.824Z,30.02
2019-04-20T08:12:25.922Z,29.77
2019-04-20T08:15:38.066Z,29.95
2019-04-20T08:18:32.316Z,30.06
2019-04-20T08:21:36.163Z,30.16
2019-04-20T08:24:37.685Z,30.00
2019-04-20T08:27:27.631Z,29.89
2019-04-20T08:31:05.150Z,29.76
2019-04-20T08:34:31.270Z,29.42
2019-04-20T08:37:25.753Z,29.20
2019-04-20T08:40:40.311Z,29.13
2019-04-20T08:43:47.050Z,29.07
2019-04-20T08:46:53.648Z,28.74
2019-04-20T08:50:11.609Z,28.61
2019-04-20T08:53:20.467Z,28.39
2019-04-20T08:56:05.926Z,28.31
2019-04-20T08:58:57.390Z,28.10
2019-04-20T09:02:05.158Z,27.91
2019-04-20T09:05:13.499Z,27.71
2019-04-20T09:08:17.961Z,27.61
2019-04-20T09:11:34.574Z,27.52
2019-04-20T09:14:23.416Z,27.55
2019-04-20T09:17:36.912Z,27.40
2019-04-20T09:20:45.886Z,27.40
2019-04-20T09:23:53.399Z,27.36
2019-04-20T09:26:57.274Z,27.17
2019-04-20T09:30:00.216Z,26.94
2019-04-20T09:33:09.630Z,26.75
2019-04-20T09:36:10.311Z,26.55
2019-04-20T09:39:11.525Z,26.58
2019-04-20T09:42:12.110Z,26.49
2019-04-20T09:45:23.239Z,26.33
2019-04-20T09:48:31.326Z,26.13
2019-04-20T09:51:40.243Z,25.83
2019-04-20T09:54:48.305Z,25.75
2019-04-20T09:57:52.904Z,25.78
2019-04-20T10:00:53.927Z,25.69
2019-04-20T10:03:44.952Z,25.55
2019-04-20T10:06:47.669Z,25.13
2019-04-20T10:09:50.352Z,24.97
2019-04-20T10:12:54.214Z,24.83
2019-04-20T10:15:57.631Z,24.57
2019-04-20T10:19:00.741Z,24.40
2019-04-20T10:22:04.556Z,24.55
2019-04-20T10:25:06.939Z,24.70
2019-04-20T10:28:09.465Z,24.84
2019-04-20T10:31:12.741Z,24.95
2019-04-20T10:34:15.816Z,24.82
2019-04-20T10:37:19.830Z,24.49
2019-04-20T10:40:38.034Z,24.21
2019-04-20T10:43:26.099Z,23.91
2019-04-20T10:46:28.941Z,23.73
2019-04-20T10:49:31.532Z,23.75
2019-04-20T10:52:33.930Z,23.84
2019-04-20T10:55:37.637Z,23.98
2019-04-20T10:58:40.133Z,24.04
2019-04-20T11:01:45.568Z,24.10
2019-04-20T11:04:48.522Z,24.19
2019-04-20T11:07:50.781Z,24.24
2019-04-20T11:11:03.515Z,24.19
2019-04-20T11:14:00.751Z,24.21
2019-04-20T11:17:02.576Z,24.23
2019-04-20T11:20:07.470Z,24.14
2019-04-20T11:23:10.766Z,24.10
2019-04-20T11:26:14.068Z,23.97
2019-04-20T11:29:16.497Z,23.88
2019-04-20T11:32:18.438Z,23.68
2019-04-20T11:35:30.128Z,23.75
2019-04-20T11:38:24.380Z,23.73
2019-04-20T11:41:30.392Z,23.64
2019-04-20T11:44:31.609Z,23.60
2019-04-20T11:47:35.390Z,23.42
2019-04-20T11:50:37.848Z,23.20
2019-04-20T11:53:40.451Z,23.23
2019-04-20T11:56:45.767Z,23.09
2019-04-20T11:59:47.292Z,23.11
2019-04-20T12:03:00.544Z,23.21
2019-04-20T12:06:06.301Z,23.18
2019-04-20T12:09:08.338Z,23.01
2019-04-20T12:12:22.406Z,22.71
2019-04-20T12:15:14.759Z,22.67
2019-04-20T12:18:17.915Z,22.66
2019-04-20T12:21:21.026Z,22.74
2019-04-20T12:24:24.378Z,22.67
2019-04-20T12:27:27.007Z,22.67
2019-04-20T12:30:30.002Z,22.60
2019-04-20T12:33:32.649Z,22.47
2019-04-20T12:36:35.325Z,22.39
2019-04-20T12:39:37.679Z,22.31
2019-04-20T12:42:41.004Z,22.29
2019-04-20T12:45:44.126Z,22.29
2019-04-20T12:48:47.456Z,22.31
2019-04-20T12:51:54.657Z,22.31
2019-04-20T12:54:54.540Z,22.39
2019-04-20T12:57:57.013Z,22.44
2019-04-20T13:00:58.902Z,22.54
2019-04-20T13:04:02.959Z,22.55
2019-04-20T13:07:05.910Z,22.57
2019-04-20T13:10:09.848Z,22.60
2019-04-20T13:13:16.815Z,22.66
2019-04-20T13:16:30.376Z,22.70
2019-04-20T13:19:33.287Z,22.63
2019-04-20T13:22:36.814Z,22.49
2019-04-20T13:25:39.324Z,22.45
2019-04-20T13:28:42.960Z,22.41
2019-04-20T13:31:45.364Z,22.47
2019-04-20T13:34:49.956Z,22.56
2019-04-20T13:37:52.069Z,22.54
2019-04-20T13:40:54.105Z,22.53
2019-04-20T13:43:59.281Z,22.54
2019-04-20T13:47:00.889Z,22.54
2019-04-20T13:50:07.234Z,22.59
2019-04-20T13:53:11.582Z,22.45
2019-04-20T13:56:14.912Z,22.26
2019-04-20T13:59:32.074Z,22.19
2019-04-20T14:02:40.383Z,22.22
2019-04-20T14:05:44.453Z,22.19
2019-04-20T14:08:47.386Z,22.19
2019-04-20T14:11:49.546Z,22.11
2019-04-20T14:14:51.586Z,22.10
2019-04-20T14:17:55.257Z,22.16
2019-04-20T14:21:00.390Z,22.07
2019-04-20T14:24:04.197Z,21.95
2019-04-20T14:27:06.636Z,21.90
2019-04-20T14:30:09.076Z,21.85
2019-04-20T14:33:11.147Z,21.65
2019-04-20T14:36:13.157Z,21.56
2019-04-20T14:39:16.197Z,21.52
2019-04-20T14:42:33.113Z,21.50
2019-04-20T14:45:24.756Z,21.45
2019-04-20T14:48:26.897Z,21.36
2019-04-20T14:51:29.905Z,21.33
2019-04-20T14:54:31.940Z,21.40
2019-04-20T14:57:35.397Z,21.43
2019-04-20T15:00:54.959Z,21.45
2019-04-20T15:04:04.885Z,21.45
2019-04-20T15:07:02.488Z,21.42
2019-04-20T15:10:06.951Z,21.38
2019-04-20T15:13:10.178Z,21.26
2019-04-20T15:16:15.040Z,21.18
2019-04-20T15:19:18.991Z,21.11
2019-04-20T15:22:41.349Z,21.12
2019-04-20T15:25:44.481Z,21.15
2019-04-20T15:28:48.321Z,21.08
2019-04-20T15:31:50.484Z,21.12
2019-04-20T15:34:53.050Z,21.15
2019-04-20T15:37:55.386Z,21.10
2019-04-20T15:40:57.723Z,21.05
2019-04-20T15:43:59.643Z,21.09
2019-04-20T15:47:01.642Z,21.03
2019-04-20T15:50:07.706Z,21.11
2019-04-20T15:53:11.247Z,21.04
2019-04-20T15:56:14.461Z,20.92
2019-04-20T15:59:16.837Z,20.76
2019-04-20T16:02:21.130Z,20.72
2019-04-20T16:05:35.459Z,20.67
2019-04-20T16:08:38.952Z,20.65
2019-04-20T16:11:41.300Z,20.58
2019-04-20T16:14:43.886Z,20.55
2019-04-20T16:17:50.840Z,20.50
2019-04-20T16:20:58.160Z,20.36
2019-04-20T16:23:56.948Z,20.24
2019-04-20T16:27:18.038Z,20.12
2019-04-20T16:30:21.018Z,20.03
2019-04-20T16:33:24.163Z,19.80
2019-04-20T16:36:26.411Z,19.77
2019-04-20T16:39:28.448Z,19.63
2019-04-20T16:42:30.395Z,19.63
2019-04-20T16:45:32.976Z,19.43
2019-04-20T16:48:35.960Z,19.43
2019-04-20T16:51:38.856Z,19.38
2019-04-20T16:54:41.783Z,19.16
2019-04-20T16:57:46.653Z,19.16
2019-04-20T17:00:47.819Z,19.15
2019-04-20T17:03:59.790Z,19.03
2019-04-20T17:07:10.278Z,18.95
2019-04-20T17:10:15.901Z,18.82
2019-04-20T17:13:30.408Z,18.62
2019-04-20T17:16:23.722Z,18.49
2019-04-20T17:19:25.999Z,18.40
2019-04-20T17:22:28.060Z,18.29
2019-04-20T17:25:30.183Z,18.15
2019-04-20T17:28:52.469Z,17.99
2019-04-20T17:32:08.047Z,17.88
2019-04-20T17:35:21.522Z,17.75
2019-04-20T17:38:16.348Z,17.67
2019-04-20T17:41:42.962Z,17.58
2019-04-20T17:44:39.194Z,17.46
2019-04-20T17:47:47.991Z,17.35
2019-04-20T17:50:55.628Z,17.21
2019-04-20T17:53:52.887Z,17.11
2019-04-20T17:56:49.360Z,16.98
2019-04-20T17:59:58.702Z,16.84
2019-04-20T18:03:18.601Z,16.75
2019-04-20T18:06:27.778Z,16.67
2019-04-20T18:09:43.328Z,16.54
2019-04-20T18:12:26.854Z,16.43
2019-04-20T18:15:36.371Z,16.37
2019-04-20T18:18:42.033Z,16.33
2019-04-20T18:21:41.103Z,16.28
2019-04-20T18:25:02.620Z,16.23
2019-04-20T18:28:04.619Z,16.15
2019-04-20T18:30:59.050Z,16.09
2019-04-20T18:34:07.008Z,16.07
2019-04-20T18:37:28.395Z,15.99
2019-04-20T18:40:51.314Z,15.92
2019-04-20T18:43:50.787Z,15.81
2019-04-20T18:47:13.889Z,15.71
2019-04-20T18:50:04.403Z,15.61
2019-04-20T18:52:58.316Z,15.50
2019-04-20T18:56:02.632Z,15.44
2019-04-20T18:59:05.207Z,15.35
2019-04-20T19:02:16.207Z,15.28
2019-04-20T19:05:13.698Z,15.21
2019-04-20T19:08:17.486Z,15.14
2019-04-20T19:11:21.714Z,15.05
2019-04-20T19:14:34.917Z,15.01
2019-04-20T19:17:59.124Z,14.92
2019-04-20T19:21:11.068Z,14.84
2019-04-20T19:24:18.306Z,14.74
2019-04-20T19:27:23.066Z,14.66
2019-04-20T19:30:34.276Z,14.56
2019-04-20T19:33:38.881Z,14.49
2019-04-20T19:36:38.987Z,14.42
2019-04-20T19:39:49.428Z,14.29
2019-04-20T19:42:59.367Z,14.21
2019-04-20T19:46:29.377Z,14.10
2019-04-20T19:49:01.114Z,13.99
2019-04-20T19:52:24.966Z,13.85
2019-04-20T19:55:14.434Z,13.76
2019-04-20T19:58:18.804Z,13.68
2019-04-20T20:01:07.003Z,13.59
2019-04-20T20:04:10.109Z,13.48
2019-04-20T20:07:22.257Z,13.38
2019-04-20T20:10:20.809Z,13.27
2019-04-20T20:13:27.393Z,13.18
2019-04-20T20:16:33.690Z,13.12
2019-04-20T20:19:54.559Z,13.02
2019-04-20T20:22:39.582Z,12.92
2019-04-20T20:25:42.451Z,12.81
2019-04-20T20:28:47.632Z,12.72
2019-04-20T20:31:58.166Z,12.62
2019-04-20T20:34:56.003Z,12.54
2019-04-20T20:37:57.884Z,12.47
2019-04-20T20:41:10.070Z,12.42
2019-04-20T20:44:05.747Z,12.32
2019-04-20T20:47:31.361Z,12.25
2019-04-20T20:50:42.741Z,12.17
2019-04-20T20:53:21.863Z,12.08
2019-04-20T20:56:25.089Z,11.97
2019-04-20T20:59:36.074Z,11.86
2019-04-20T21:02:43.482Z,11.75
2019-04-20T21:05:33.541Z,11.69
2019-04-20T21:08:42.808Z,11.62
2019-04-20T21:11:40.285Z,11.55
2019-04-20T21:14:43.700Z,11.48
2019-04-20T21:18:09.094Z,11.40
2019-04-20T21:21:10.218Z,11.33
2019-04-20T21:24:03.185Z,11.29
2019-04-20T21:27:06.726Z,11.25
2019-04-20T21:30:05.684Z,11.20
2019-04-20T21:33:11.591Z,11.15
2019-04-20T21:36:19.218Z,11.09
2019-04-20T21:39:32.415Z,11.03
2019-04-20T21:42:26.271Z,10.95
2019-04-20T21:45:31.178Z,10.86
2019-04-20T21:48:43.935Z,10.75
2019-04-20T21:51:44.343Z,10.66
2019-04-20T21:54:38.236Z,10.51
2019-04-20T21:57:47.355Z,10.41
2019-04-20T22:01:07.259Z,10.29
2019-04-20T22:03:58.547Z,10.20
2019-04-20T22:07:00.631Z,10.08
2019-04-20T22:10:07.082Z,10.01
2019-04-20T22:13:09.967Z,10.00
2019-04-20T22:16:14.543Z,9.94
2019-04-20T22:19:33.682Z,9.87
2019-04-20T22:22:39.791Z,9.83
2019-04-20T22:25:42.534Z,9.81
2019-04-20T22:28:27.761Z,9.80
2019-04-20T22:31:29.951Z,9.77
2019-04-20T22:34:33.735Z,9.77
2019-04-20T22:38:03.634Z,9.74
2019-04-20T22:41:03.820Z,9.71
2019-04-20T22:44:11.602Z,9.64
2019-04-20T22:47:13.895Z,9.59
2019-04-20T22:50:28.917Z,9.58
2019-04-20T22:53:29.425Z,9.56
2019-04-20T22:56:34.157Z,9.46
2019-04-20T22:59:30.369Z,9.39
2019-04-20T23:02:28.072Z,9.33
2019-04-20T23:05:30.986Z,9.21
2019-04-20T23:08:33.375Z,9.05
2019-04-20T23:11:36.800Z,8.89
2019-04-20T23:14:40.383Z,8.69
2019-04-20T23:17:45.922Z,8.56
2019-04-20T23:20:47.939Z,8.55
2019-04-20T23:23:53.688Z,8.52
2019-04-20T23:26:55.280Z,8.43
2019-04-20T23:29:58.565Z,8.27
2019-04-20T23:33:02.170Z,8.19
2019-04-20T23:36:05.087Z,8.09
2019-04-20T23:39:08.661Z,8.23
2019-04-20T23:42:14.426Z,8.39
2019-04-20T23:45:35.456Z,8.55
2019-04-20T23:48:38.830Z,8.71
2019-04-20T23:51:59.281Z,8.83
2019-04-20T23:54:49.029Z,8.89
2019-04-20T23:57:46.105Z,8.95
